createdAt,value
2018-04-08T00:02:24.865Z,10.43
2018-04-08T00:04:53.125Z,11.60
2018-04-08T00:07:21.401Z,10.50
2018-04-08T00:09:49.681Z,6.80
2018-04-08T00:12:17.930Z,7.10
2018-04-08T00:14:46.230Z,6.80
2018-04-08T00:17:14.483Z,7.78
2018-04-08T00:19:42.789Z,8.40
2018-04-08T00:22:11.038Z,9.30
2018-04-08T00:24:39.784Z,9.65
2018-04-08T00:27:08.017Z,8.57
2018-04-08T00:29:36.269Z,7.82
2018-04-08T00:32:04.571Z,7.12
2018-04-08T00:34:32.818Z,8.43
2018-04-08T00:37:01.125Z,8.93
2018-04-08T00:39:29.418Z,7.53
2018-04-08T00:41:57.670Z,6.60
2018-04-08T00:44:25.925Z,7.35
2018-04-08T00:46:54.222Z,5.82
2018-04-08T00:49:22.470Z,8.57
2018-04-08T00:51:50.731Z,6.37
2018-04-08T00:54:30.484Z,6.47
2018-04-08T00:56:58.499Z,8.95
2018-04-08T00:59:26.555Z,8.55
2018-04-08T01:01:54.566Z,8.10
2018-04-08T01:04:22.577Z,7.82
2018-04-08T01:06:51.367Z,7.97
2018-04-08T01:09:20.157Z,6.20
2018-04-08T01:11:48.971Z,7.65
2018-04-08T01:14:16.978Z,5.70
2018-04-08T01:16:45.977Z,7.85
2018-04-08T01:19:14.995Z,6.00
2018-04-08T01:21:43.282Z,6.30
2018-04-08T01:24:11.539Z,6.43
2018-04-08T01:26:39.785Z,7.45
2018-04-08T01:29:08.837Z,6.87
2018-04-08T01:31:37.101Z,7.15
2018-04-08T01:34:05.354Z,6.87
2018-04-08T01:36:33.617Z,6.30
2018-04-08T01:39:02.206Z,6.45
2018-04-08T01:41:31.234Z,6.80
2018-04-08T01:43:59.482Z,8.43
2018-04-08T01:46:27.790Z,6.78
2018-04-08T01:48:56.029Z,6.82
2018-04-08T01:51:24.330Z,8.52
2018-04-08T01:53:52.600Z,7.87
2018-04-08T01:56:20.878Z,7.20
2018-04-08T01:58:49.131Z,8.20
2018-04-08T02:01:17.414Z,7.78
2018-04-08T02:03:45.665Z,6.47
2018-04-08T02:06:14.718Z,6.22
2018-04-08T02:08:42.985Z,10.25
2018-04-08T02:11:11.244Z,7.95
2018-04-08T02:13:39.502Z,6.82
2018-04-08T02:16:07.802Z,7.03
2018-04-08T02:18:36.053Z,8.93
2018-04-08T02:21:04.312Z,8.55
2018-04-08T02:23:33.330Z,7.53
2018-04-08T02:26:01.573Z,5.60
2018-04-08T02:28:30.609Z,5.68
2018-04-08T02:30:58.906Z,5.78
2018-04-08T02:33:27.161Z,6.22
2018-04-08T02:35:55.406Z,5.62
2018-04-08T02:38:23.658Z,7.20
2018-04-08T02:40:52.710Z,7.62
2018-04-08T02:43:20.961Z,6.28
2018-04-08T02:45:49.254Z,9.20
2018-04-08T02:48:17.499Z,6.22
2018-04-08T02:50:45.755Z,6.45
2018-04-08T02:53:14.772Z,6.65
2018-04-08T02:55:43.019Z,7.93
2018-04-08T02:58:11.274Z,9.05
2018-04-08T03:00:39.625Z,6.30
2018-04-08T03:03:07.869Z,7.78
2018-04-08T03:05:36.882Z,6.43
2018-04-08T03:08:05.127Z,7.53
2018-04-08T03:10:34.134Z,8.80
2018-04-08T03:13:02.437Z,7.70
2018-04-08T03:15:30.718Z,9.82
2018-04-08T03:17:58.953Z,9.10
2018-04-08T03:20:27.960Z,8.07
2018-04-08T03:22:56.261Z,9.82
2018-04-08T03:25:24.498Z,9.90
2018-04-08T03:27:53.502Z,7.80
2018-04-08T03:30:21.803Z,9.10
2018-04-08T03:32:50.083Z,8.95
2018-04-08T03:35:18.348Z,8.02
2018-04-08T03:37:46.581Z,8.02
2018-04-08T03:40:15.594Z,6.65
2018-04-08T03:42:43.829Z,6.78
2018-04-08T03:45:12.423Z,8.18
2018-04-08T03:47:41.518Z,7.80
2018-04-08T03:50:10.034Z,5.95
2018-04-08T03:52:38.623Z,8.30
2018-04-08T03:55:07.684Z,7.40
2018-04-08T03:57:35.910Z,8.93
2018-04-08T04:00:04.230Z,6.05
2018-04-08T04:02:33.337Z,6.78
2018-04-08T04:05:01.557Z,7.28
2018-04-08T04:07:29.998Z,7.72
2018-04-08T04:09:58.993Z,7.78
2018-04-08T04:12:27.240Z,7.85
2018-04-08T04:14:55.605Z,8.15
2018-04-08T04:17:23.928Z,8.02
2018-04-08T04:20:04.205Z,7.15
2018-04-08T04:22:44.285Z,8.13
2018-04-08T04:25:36.248Z,8.55
2018-04-08T04:28:05.454Z,9.30
2018-04-08T04:30:34.552Z,9.18
2018-04-08T04:33:03.557Z,8.18
2018-04-08T04:35:31.837Z,7.03
2018-04-08T04:38:00.262Z,8.77
2018-04-08T04:40:28.493Z,7.95
2018-04-08T04:42:57.100Z,8.40
2018-04-08T04:45:25.321Z,7.87
2018-04-08T04:47:54.391Z,7.12
2018-04-08T04:50:22.718Z,7.45
2018-04-08T04:52:51.046Z,9.07
2018-04-08T04:55:19.374Z,7.78
2018-04-08T04:57:47.707Z,11.82
2018-04-08T05:00:16.268Z,6.93
2018-04-08T05:02:44.591Z,7.78
2018-04-08T05:05:13.445Z,7.80
2018-04-08T05:07:41.814Z,7.55
2018-04-08T05:10:10.219Z,7.90
2018-04-08T05:12:38.736Z,8.60
2018-04-08T05:15:07.056Z,9.25
2018-04-08T05:17:35.489Z,9.27
2018-04-08T05:20:03.813Z,8.37
2018-04-08T05:22:32.138Z,8.40
2018-04-08T05:25:00.464Z,9.83
2018-04-08T05:27:28.859Z,9.03
2018-04-08T05:29:58.008Z,6.93
2018-04-08T05:32:26.356Z,7.43
2018-04-08T05:34:55.513Z,9.40
2018-04-08T05:37:23.949Z,6.83
2018-04-08T05:39:52.290Z,7.40
2018-04-08T05:42:21.660Z,6.40
2018-04-08T05:44:50.155Z,7.57
2018-04-08T05:47:18.485Z,6.53
2018-04-08T05:49:46.846Z,7.90
2018-04-08T05:52:15.172Z,7.30
2018-04-08T05:54:43.562Z,8.40
2018-04-08T05:57:11.812Z,8.70
2018-04-08T05:59:40.052Z,8.57
2018-04-08T06:02:08.300Z,9.03
2018-04-08T06:04:36.624Z,7.50
2018-04-08T06:07:04.876Z,9.80
2018-04-08T06:09:34.144Z,9.10
2018-04-08T06:12:03.980Z,8.77
2018-04-08T06:14:34.432Z,10.47
2018-04-08T06:17:03.771Z,8.60
2018-04-08T06:19:32.656Z,9.57
2018-04-08T06:22:01.716Z,8.87
2018-04-08T06:24:31.189Z,11.87
2018-04-08T06:27:00.283Z,9.13
2018-04-08T06:29:28.578Z,10.40
2018-04-08T06:31:56.968Z,11.40
2018-04-08T06:34:25.290Z,11.93
2018-04-08T06:36:53.622Z,10.83
2018-04-08T06:39:21.865Z,12.47
2018-04-08T06:41:50.917Z,9.07
2018-04-08T06:44:19.168Z,10.67
2018-04-08T06:46:47.486Z,8.53
2018-04-08T06:49:15.826Z,7.93
2018-04-08T06:51:44.190Z,7.60
2018-04-08T06:54:12.458Z,7.60
2018-04-08T06:56:40.809Z,9.13
2018-04-08T06:59:09.121Z,8.70
2018-04-08T07:01:37.361Z,9.10
2018-04-08T07:04:06.377Z,10.73
2018-04-08T07:06:34.749Z,9.43
2018-04-08T07:09:02.997Z,8.10
2018-04-08T07:11:31.237Z,8.93
2018-04-08T07:13:59.480Z,9.57
2018-04-08T07:16:27.726Z,9.40
2018-04-08T07:18:56.775Z,9.37
2018-04-08T07:21:25.013Z,10.00
2018-04-08T07:23:53.261Z,9.07
2018-04-08T07:26:21.594Z,9.73
2018-04-08T07:28:49.837Z,9.53
2018-04-08T07:31:18.090Z,9.33
2018-04-08T07:33:46.333Z,12.33
2018-04-08T07:36:14.593Z,9.67
2018-04-08T07:38:42.846Z,9.50
2018-04-08T07:41:11.141Z,8.67
2018-04-08T07:43:39.418Z,10.70
2018-04-08T07:46:07.695Z,10.13
2018-04-08T07:48:35.946Z,9.77
2018-04-08T07:51:04.245Z,10.07
2018-04-08T07:53:32.485Z,9.90
2018-04-08T07:56:01.523Z,10.10
2018-04-08T07:58:29.789Z,10.37
2018-04-08T08:00:58.038Z,9.90
2018-04-08T08:03:26.281Z,10.27
2018-04-08T08:05:54.608Z,10.23
2018-04-08T08:08:22.861Z,10.23
2018-04-08T08:10:51.192Z,10.17
2018-04-08T08:13:19.817Z,11.00
2018-04-08T08:15:48.952Z,11.10
2018-04-08T08:18:17.331Z,10.60
2018-04-08T08:20:45.600Z,9.97
2018-04-08T08:23:13.865Z,10.73
2018-04-08T08:25:42.145Z,11.93
2018-04-08T08:28:10.426Z,11.43
2018-04-08T08:30:38.686Z,11.17
2018-04-08T08:33:06.990Z,13.13
2018-04-08T08:35:35.232Z,11.93
2018-04-08T08:38:03.498Z,12.13
2018-04-08T08:40:31.815Z,12.33
2018-04-08T08:43:00.077Z,11.77
2018-04-08T08:45:28.326Z,13.83
2018-04-08T08:47:56.642Z,13.30
2018-04-08T08:50:24.890Z,14.97
2018-04-08T08:52:53.181Z,14.73
2018-04-08T08:55:21.425Z,14.00
2018-04-08T08:57:49.694Z,13.10
2018-04-08T09:00:18.723Z,13.20
2018-04-08T09:02:46.986Z,16.47
2018-04-08T09:05:15.237Z,14.03
2018-04-08T09:07:43.499Z,13.37
2018-04-08T09:10:12.529Z,12.13
2018-04-08T09:12:40.807Z,11.50
2018-04-08T09:15:09.062Z,11.63
2018-04-08T09:17:37.309Z,11.93
2018-04-08T09:20:08.054Z,11.40
2018-04-08T09:22:43.659Z,12.03
2018-04-08T09:25:14.419Z,12.70
2018-04-08T09:27:42.637Z,12.17
2018-04-08T09:30:10.922Z,11.97
2018-04-08T09:32:39.178Z,13.13
2018-04-08T09:35:07.442Z,13.83
2018-04-08T09:37:36.514Z,12.40
2018-04-08T09:40:04.842Z,15.10
2018-04-08T09:42:33.097Z,15.60
2018-04-08T09:45:01.369Z,13.00
2018-04-08T09:47:29.717Z,12.03
2018-04-08T09:49:57.949Z,13.37
2018-04-08T09:52:26.233Z,12.80
2018-04-08T09:54:54.488Z,25.47
2018-04-08T09:57:22.755Z,23.30
2018-04-08T09:59:51.016Z,27.80
2018-04-08T10:02:25.741Z,14.53
2018-04-08T10:04:54.761Z,14.33
2018-04-08T10:07:23.049Z,14.80
2018-04-08T10:09:51.342Z,13.87
2018-04-08T10:12:19.594Z,13.77
2018-04-08T10:14:47.852Z,15.43
2018-04-08T10:17:16.154Z,13.37
2018-04-08T10:19:44.422Z,14.37
2018-04-08T10:22:12.696Z,15.20
2018-04-08T10:24:40.946Z,15.10
2018-04-08T10:27:09.302Z,15.43
2018-04-08T10:29:38.338Z,16.20
2018-04-08T10:32:06.636Z,16.00
2018-04-08T10:34:35.008Z,15.33
2018-04-08T10:37:03.387Z,24.43
2018-04-08T10:39:31.634Z,16.03
2018-04-08T10:41:59.933Z,15.40
2018-04-08T10:44:28.248Z,15.53
2018-04-08T10:46:56.587Z,15.60
2018-04-08T10:49:24.866Z,17.97
2018-04-08T10:51:53.134Z,16.67
2018-04-08T10:54:21.390Z,15.53
2018-04-08T10:56:49.727Z,15.40
2018-04-08T10:59:17.953Z,16.87
2018-04-08T11:01:46.210Z,16.83
2018-04-08T11:04:14.469Z,19.63
2018-04-08T11:06:43.477Z,17.73
2018-04-08T11:09:11.829Z,19.13
2018-04-08T11:11:40.321Z,18.80
2018-04-08T11:14:09.341Z,16.93
2018-04-08T11:16:37.589Z,16.87
2018-04-08T11:19:06.656Z,20.47
2018-04-08T11:21:34.897Z,20.13
2018-04-08T11:24:03.182Z,19.73
2018-04-08T11:26:31.438Z,20.63
2018-04-08T11:28:59.697Z,18.13
2018-04-08T11:31:28.007Z,20.60
2018-04-08T11:33:56.303Z,20.37
2018-04-08T11:36:24.556Z,20.03
2018-04-08T11:38:52.838Z,20.67
2018-04-08T11:41:21.214Z,20.53
2018-04-08T11:43:49.470Z,17.83
2018-04-08T11:46:17.843Z,19.40
2018-04-08T11:48:46.092Z,20.27
2018-04-08T11:51:15.147Z,20.23
2018-04-08T11:53:43.390Z,23.20
2018-04-08T11:56:11.637Z,20.00
2018-04-08T11:58:39.898Z,18.93
2018-04-08T12:01:08.925Z,19.83
2018-04-08T12:03:37.175Z,22.27
2018-04-08T12:06:06.345Z,21.67
2018-04-08T12:08:34.590Z,17.20
2018-04-08T12:11:02.846Z,24.40
2018-04-08T12:13:31.097Z,18.97
2018-04-08T12:16:00.134Z,21.33
2018-04-08T12:18:28.398Z,23.10
2018-04-08T12:20:56.694Z,22.77
2018-04-08T12:23:24.962Z,20.33
2018-04-08T12:25:53.214Z,21.30
2018-04-08T12:28:21.486Z,21.57
2018-04-08T12:30:50.495Z,20.17
2018-04-08T12:33:18.745Z,20.63
2018-04-08T12:35:47.058Z,23.93
2018-04-08T12:38:15.319Z,20.07
2018-04-08T12:40:43.579Z,20.83
2018-04-08T12:43:11.843Z,24.77
2018-04-08T12:45:40.873Z,20.03
2018-04-08T12:48:09.134Z,22.27
2018-04-08T12:50:37.381Z,21.20
2018-04-08T12:53:06.415Z,21.80
2018-04-08T12:55:34.694Z,20.27
2018-04-08T12:58:02.958Z,21.47
2018-04-08T13:00:31.236Z,22.43
2018-04-08T13:02:59.476Z,19.13
2018-04-08T13:05:28.549Z,22.10
2018-04-08T13:07:56.791Z,22.60
2018-04-08T13:10:25.064Z,21.93
2018-04-08T13:12:53.297Z,21.50
2018-04-08T13:15:22.317Z,21.60
2018-04-08T13:17:50.577Z,22.17
2018-04-08T13:20:18.838Z,23.43
2018-04-08T13:22:47.886Z,21.43
2018-04-08T13:25:16.175Z,22.13
2018-04-08T13:27:44.434Z,22.97
2018-04-08T13:30:12.697Z,22.07
2018-04-08T13:32:40.948Z,21.37
2018-04-08T13:35:09.266Z,23.40
2018-04-08T13:37:37.509Z,20.70
2018-04-08T13:40:05.796Z,22.30
2018-04-08T13:42:34.077Z,18.47
2018-04-08T13:45:02.334Z,20.37
2018-04-08T13:47:30.586Z,22.97
2018-04-08T13:49:59.601Z,22.80
2018-04-08T13:52:27.900Z,21.10
2018-04-08T13:54:56.171Z,22.20
2018-04-08T13:57:24.413Z,21.57
2018-04-08T13:59:52.682Z,22.00
2018-04-08T14:02:21.717Z,21.57
2018-04-08T14:04:49.978Z,18.90
2018-04-08T14:07:18.235Z,20.53
2018-04-08T14:09:46.492Z,24.20
2018-04-08T14:12:15.538Z,20.73
2018-04-08T14:14:43.835Z,18.07
2018-04-08T14:17:12.077Z,22.83
2018-04-08T14:19:40.338Z,18.33
2018-04-08T14:22:08.587Z,19.67
2018-04-08T14:24:37.673Z,19.67
2018-04-08T14:27:05.910Z,18.27
2018-04-08T14:29:34.187Z,22.10
2018-04-08T14:32:02.439Z,21.80
2018-04-08T14:34:30.690Z,23.23
2018-04-08T14:36:58.942Z,19.77
2018-04-08T14:39:27.277Z,19.50
2018-04-08T14:41:55.576Z,19.07
2018-04-08T14:44:23.929Z,19.63
2018-04-08T14:46:52.309Z,19.80
2018-04-08T14:49:20.637Z,22.33
2018-04-08T14:51:48.860Z,25.53
2018-04-08T14:54:17.709Z,17.13
2018-04-08T14:56:46.850Z,20.00
2018-04-08T14:59:15.101Z,21.47
2018-04-08T15:01:46.664Z,20.47
2018-04-08T15:04:11.622Z,18.17
2018-04-08T15:06:40.652Z,18.83
2018-04-08T15:09:08.892Z,16.63
2018-04-08T15:11:37.918Z,17.50
2018-04-08T15:14:06.170Z,21.23
2018-04-08T15:16:35.198Z,20.07
2018-04-08T15:19:03.446Z,21.23
2018-04-08T15:21:31.710Z,19.03
2018-04-08T15:24:00.721Z,20.27
2018-04-08T15:26:29.857Z,22.43
2018-04-08T15:28:58.222Z,23.00
2018-04-08T15:31:26.486Z,23.00
2018-04-08T15:33:54.743Z,19.57
2018-04-08T15:36:23.003Z,22.73
2018-04-08T15:38:52.035Z,21.00
2018-04-08T15:41:20.289Z,19.70
2018-04-08T15:43:48.619Z,23.67
2018-04-08T15:46:16.966Z,22.33
2018-04-08T15:48:45.222Z,21.23
2018-04-08T15:51:13.498Z,21.50
2018-04-08T15:53:41.798Z,22.40
2018-04-08T15:56:10.054Z,20.90
2018-04-08T15:58:38.347Z,20.77
2018-04-08T16:01:06.624Z,21.70
2018-04-08T16:03:34.894Z,21.80
2018-04-08T16:06:03.275Z,23.97
2018-04-08T16:08:31.547Z,22.60
2018-04-08T16:10:59.798Z,20.20
2018-04-08T16:13:28.063Z,24.33
2018-04-08T16:15:56.309Z,19.80
2018-04-08T16:18:24.649Z,20.77
2018-04-08T16:20:52.920Z,21.17
2018-04-08T16:23:21.175Z,22.27
2018-04-08T16:25:49.539Z,21.97
2018-04-08T16:28:17.853Z,20.87
2018-04-08T16:30:46.110Z,20.27
2018-04-08T16:33:14.361Z,19.47
2018-04-08T16:35:43.384Z,20.70
2018-04-08T16:38:11.642Z,18.73
2018-04-08T16:40:39.889Z,16.57
2018-04-08T16:43:08.943Z,16.67
2018-04-08T16:45:37.210Z,18.00
2018-04-08T16:48:05.498Z,26.43
2018-04-08T16:50:33.741Z,17.47
2018-04-08T16:53:02.009Z,17.47
2018-04-08T16:55:30.257Z,19.97
2018-04-08T16:57:59.292Z,17.27
2018-04-08T17:00:27.550Z,18.47
2018-04-08T17:02:55.869Z,17.73
2018-04-08T17:05:24.134Z,17.33
2018-04-08T17:07:52.416Z,19.83
2018-04-08T17:10:20.684Z,21.03
2018-04-08T17:12:48.926Z,20.73
2018-04-08T17:15:17.276Z,24.50
2018-04-08T17:17:45.777Z,26.07
2018-04-08T17:20:14.044Z,26.90
2018-04-08T17:22:43.071Z,29.87
2018-04-08T17:25:11.330Z,30.80
2018-04-08T17:27:39.598Z,36.17
2018-04-08T17:30:07.859Z,32.63
2018-04-08T17:32:36.888Z,31.13
2018-04-08T17:35:05.141Z,32.10
2018-04-08T17:37:33.405Z,35.63
2018-04-08T17:40:02.420Z,33.30
2018-04-08T17:42:30.701Z,34.70
2018-04-08T17:44:58.962Z,36.77
2018-04-08T17:47:27.217Z,32.47
2018-04-08T17:49:56.247Z,34.87
2018-04-08T17:52:24.509Z,35.10
2018-04-08T17:54:52.764Z,35.40
2018-04-08T17:57:21.810Z,33.00
2018-04-08T17:59:50.069Z,34.43
2018-04-08T18:02:18.329Z,35.00
2018-04-08T18:04:46.593Z,37.13
2018-04-08T18:07:15.613Z,34.30
2018-04-08T18:09:43.875Z,37.63
2018-04-08T18:12:12.129Z,37.20
2018-04-08T18:14:41.177Z,37.03
2018-04-08T18:17:09.422Z,35.97
2018-04-08T18:19:37.717Z,36.20
2018-04-08T18:22:05.993Z,37.37
2018-04-08T18:24:34.272Z,36.07
2018-04-08T18:27:02.533Z,39.20
2018-04-08T18:29:30.789Z,40.00
2018-04-08T18:31:59.059Z,36.23
2018-04-08T18:34:28.086Z,37.10
2018-04-08T18:36:56.365Z,36.00
2018-04-08T18:39:24.622Z,36.00
2018-04-08T18:41:52.880Z,40.67
2018-04-08T18:44:21.889Z,37.20
2018-04-08T18:46:50.145Z,36.63
2018-04-08T18:49:18.461Z,40.13
2018-04-08T18:51:46.743Z,36.93
2018-04-08T18:54:15.019Z,37.37
2018-04-08T18:56:43.616Z,38.20
2018-04-08T18:59:11.831Z,42.97
2018-04-08T19:01:40.872Z,39.93
2018-04-08T19:04:09.139Z,37.97
2018-04-08T19:06:37.518Z,40.75
2018-04-08T19:09:05.791Z,38.60
2018-04-08T19:11:34.054Z,40.97
2018-04-08T19:14:02.332Z,39.65
2018-04-08T19:16:30.594Z,40.53
2018-04-08T19:18:58.853Z,41.50
2018-04-08T19:21:27.206Z,39.13
2018-04-08T19:23:55.566Z,36.95
2018-04-08T19:26:23.936Z,40.10
2018-04-08T19:28:52.215Z,37.37
2018-04-08T19:31:20.572Z,35.78
2018-04-08T19:33:48.837Z,38.40
2018-04-08T19:36:17.099Z,41.33
2018-04-08T19:38:45.369Z,41.42
2018-04-08T19:41:13.682Z,42.17
2018-04-08T19:43:42.060Z,39.47
2018-04-08T19:46:10.318Z,38.13
2018-04-08T19:48:38.644Z,39.60
2018-04-08T19:51:06.880Z,40.70
2018-04-08T19:53:35.157Z,43.25
2018-04-08T19:56:03.421Z,44.20
2018-04-08T19:58:31.686Z,42.60
2018-04-08T20:00:59.987Z,44.33
2018-04-08T20:03:28.265Z,43.53
2018-04-08T20:05:56.539Z,41.22
2018-04-08T20:08:24.821Z,43.65
2018-04-08T20:10:53.094Z,36.90
2018-04-08T20:13:21.365Z,36.75
2018-04-08T20:15:49.625Z,35.42
2018-04-08T20:18:17.913Z,32.88
2018-04-08T20:20:46.168Z,35.00
2018-04-08T20:23:14.425Z,32.92
2018-04-08T20:25:42.690Z,33.10
2018-04-08T20:28:11.728Z,31.55
2018-04-08T20:30:39.991Z,31.30
2018-04-08T20:33:08.248Z,32.70
2018-04-08T20:35:36.522Z,33.75
2018-04-08T20:38:05.661Z,31.02
2018-04-08T20:40:33.917Z,32.63
2018-04-08T20:43:02.183Z,34.03
2018-04-08T20:45:30.446Z,33.08
2018-04-08T20:47:58.714Z,32.47
2018-04-08T20:50:27.030Z,37.05
2018-04-08T20:52:55.294Z,30.40
2018-04-08T20:55:23.570Z,30.23
2018-04-08T20:57:51.872Z,29.75
2018-04-08T21:00:20.241Z,30.42
2018-04-08T21:02:48.519Z,31.58
2018-04-08T21:05:16.890Z,28.67
2018-04-08T21:07:45.141Z,31.15
2018-04-08T21:10:13.441Z,33.17
2018-04-08T21:12:41.703Z,29.83
2018-04-08T21:15:09.962Z,32.80
2018-04-08T21:17:38.246Z,35.22
2018-04-08T21:20:06.512Z,34.40
2018-04-08T21:22:34.780Z,32.22
2018-04-08T21:25:03.045Z,34.03
2018-04-08T21:27:32.157Z,33.08
2018-04-08T21:30:00.421Z,35.33
2018-04-08T21:32:28.737Z,34.80
2018-04-08T21:34:57.011Z,33.40
2018-04-08T21:37:25.273Z,32.90
2018-04-08T21:39:53.548Z,33.13
2018-04-08T21:42:21.815Z,34.65
2018-04-08T21:44:50.097Z,33.08
2018-04-08T21:47:18.364Z,32.53
2018-04-08T21:49:46.634Z,31.48
2018-04-08T21:52:14.894Z,29.35
2018-04-08T21:54:43.934Z,32.35
2018-04-08T21:57:12.189Z,29.95
2018-04-08T21:59:40.458Z,31.40
2018-04-08T22:02:08.728Z,29.65
2018-04-08T22:04:37.034Z,27.58
2018-04-08T22:07:05.515Z,32.05
2018-04-08T22:09:33.777Z,31.60
2018-04-08T22:12:02.038Z,30.60
2018-04-08T22:14:30.310Z,33.88
2018-04-08T22:16:58.570Z,28.20
2018-04-08T22:19:27.607Z,31.10
2018-04-08T22:21:55.866Z,27.95
2018-04-08T22:24:24.949Z,28.73
2018-04-08T22:26:53.446Z,27.83
2018-04-08T22:29:21.681Z,29.85
2018-04-08T22:31:50.717Z,29.80
2018-04-08T22:34:18.978Z,30.20
2018-04-08T22:36:47.264Z,29.75
2018-04-08T22:39:15.533Z,28.83
2018-04-08T22:41:43.810Z,29.98
2018-04-08T22:44:12.114Z,29.45
2018-04-08T22:46:40.403Z,27.95
2018-04-08T22:49:08.670Z,30.08
2018-04-08T22:51:36.938Z,31.12
2018-04-08T22:54:05.240Z,29.60
2018-04-08T22:56:33.497Z,30.37
2018-04-08T22:59:01.755Z,30.17
2018-04-08T23:01:30.018Z,29.02
2018-04-08T23:03:58.289Z,29.67
2018-04-08T23:06:26.575Z,27.55
2018-04-08T23:08:54.847Z,28.83
2018-04-08T23:11:23.105Z,26.87
2018-04-08T23:13:51.419Z,27.98
2018-04-08T23:16:19.674Z,27.02
2018-04-08T23:18:47.929Z,31.05
2018-04-08T23:21:16.182Z,26.92
2018-04-08T23:23:44.445Z,28.23
2018-04-08T23:26:13.465Z,30.20
2018-04-08T23:28:42.617Z,32.05
2018-04-08T23:31:10.879Z,28.87
2018-04-08T23:33:39.261Z,32.05
2018-04-08T23:36:07.514Z,28.62
2018-04-08T23:38:35.774Z,28.83
2018-04-08T23:41:04.025Z,29.02
2018-04-08T23:43:33.057Z,29.12
2018-04-08T23:46:01.326Z,29.12
2018-04-08T23:48:29.610Z,30.50
2018-04-08T23:50:57.864Z,29.65
2018-04-08T23:53:26.141Z,30.17
2018-04-08T23:55:54.408Z,29.20
2018-04-08T23:58:23.454Z,32.17
